Time;durP1;ratioP1;P1;durP2;ratioP2;P2;SDS_P1;SDS_P2;PMS_P1;PMS_P2;Temp;Humidity;BMP_temperature;BMP_pressure;BME280_temperature;BME280_humidity;BME280_pressure;Samples;Min_cycle;Max_cycle;Signal;HPM_P1;HPM_P2
2021/12/07 00:01:19;;;;;;;26.83;13.70;;;2.50;99.90;;;;;;5073144;28;20198;-70
2021/12/07 00:03:46;;;;;;;24.20;11.13;;;2.50;99.90;;;;;;5073456;28;20212;-70
2021/12/07 00:06:13;;;;;;;25.13;12.33;;;2.50;99.90;;;;;;5063367;28;20207;-70
2021/12/07 00:08:42;;;;;;;26.30;12.23;;;2.00;99.90;;;;;;5060894;28;20656;-70
2021/12/07 00:11:10;;;;;;;26.57;12.57;;;1.80;99.90;;;;;;5051899;28;20205;-70
2021/12/07 00:13:39;;;;;;;27.57;12.27;;;1.70;99.90;;;;;;5072290;28;20198;-70
2021/12/07 00:16:09;;;;;;;26.57;12.70;;;1.60;99.90;;;;;;5072440;28;20206;-70
2021/12/07 00:18:38;;;;;;;31.03;13.60;;;1.60;99.90;;;;;;5071566;28;20587;-70
2021/12/07 00:21:06;;;;;;;25.60;12.23;;;1.60;99.90;;;;;;5071800;28;20220;-70
2021/12/07 00:23:35;;;;;;;30.23;13.47;;;1.60;99.90;;;;;;5074380;28;20199;-70
2021/12/07 00:26:03;;;;;;;27.33;12.73;;;1.60;99.90;;;;;;5071709;28;20213;-70
2021/12/07 00:28:30;;;;;;;28.53;13.63;;;1.70;99.90;;;;;;5071058;28;20186;-70
2021/12/07 00:31:08;;;;;;;26.47;13.47;;;1.60;99.90;;;;;;5071465;28;20202;-70
2021/12/07 00:33:42;;;;;;;27.37;11.90;;;1.60;99.90;;;;;;5056337;28;20778;-70
2021/12/07 00:36:09;;;;;;;27.60;12.77;;;1.60;99.90;;;;;;5063323;28;20260;-70
2021/12/07 00:38:36;;;;;;;27.43;12.40;;;1.60;99.90;;;;;;5060471;28;20214;-70
2021/12/07 00:41:04;;;;;;;27.20;12.40;;;1.70;99.90;;;;;;5068958;28;20680;-70
2021/12/07 00:43:33;;;;;;;25.40;12.00;;;1.60;99.90;;;;;;5062925;28;20210;-70
2021/12/07 00:46:01;;;;;;;24.07;11.83;;;1.60;99.90;;;;;;5064123;28;20290;-70
2021/12/07 00:48:28;;;;;;;23.47;11.70;;;1.60;99.90;;;;;;5051698;28;20561;-70
2021/12/07 00:50:57;;;;;;;23.30;10.90;;;1.70;99.90;;;;;;5052739;28;20203;-70
2021/12/07 00:53:26;;;;;;;25.20;11.83;;;1.60;99.90;;;;;;5059228;28;20199;-70
2021/12/07 00:55:56;;;;;;;24.23;11.00;;;1.60;99.90;;;;;;5071825;28;20197;-70
2021/12/07 00:58:25;;;;;;;28.07;12.57;;;1.60;99.90;;;;;;5065212;28;20702;-70
2021/12/07 01:00:56;;;;;;;23.50;11.40;;;1.60;99.90;;;;;;5070861;28;20304;-70
2021/12/07 01:03:23;;;;;;;26.40;11.93;;;1.60;99.90;;;;;;5071997;28;20198;-70
2021/12/07 01:05:53;;;;;;;25.37;10.90;;;1.60;99.90;;;;;;5070913;28;20205;-70
2021/12/07 01:08:38;;;;;;;24.43;11.53;;;1.60;99.90;;;;;;5063394;28;20540;-71
2021/12/07 01:25:05;;;;;;;28.47;12.50;;;1.50;99.90;;;;;;5082930;28;20196;-70
2021/12/07 01:27:32;;;;;;;29.50;12.87;;;1.50;99.90;;;;;;5063091;28;20200;-70
2021/12/07 01:30:08;;;;;;;27.87;12.67;;;1.50;99.90;;;;;;5054735;28;20293;-70
2021/12/07 01:32:54;;;;;;;28.67;12.10;;;1.50;99.90;;;;;;5065522;28;20198;-70
2021/12/07 01:38:23;;;;;;;24.53;11.73;;;1.50;99.90;;;;;;5067863;28;20214;-70
2021/12/07 01:41:11;;;;;;;23.67;11.60;;;1.60;99.90;;;;;;5070677;28;20544;-70
2021/12/07 01:43:57;;;;;;;26.43;12.20;;;1.60;99.90;;;;;;5068630;28;20209;-71
2021/12/07 02:00:16;;;;;;;30.80;13.57;;;1.10;99.90;;;;;;5070074;28;20207;-70
2021/12/07 02:02:44;;;;;;;27.07;12.77;;;1.20;99.90;;;;;;5071539;28;20228;-71
2021/12/07 02:05:12;;;;;;;29.50;13.33;;;1.30;99.90;;;;;;5081783;28;20213;-70
2021/12/07 02:07:39;;;;;;;31.67;13.60;;;1.30;99.90;;;;;;5075205;28;20186;-70
2021/12/07 02:10:12;;;;;;;29.27;13.27;;;1.30;99.90;;;;;;5074150;28;20203;-71
2021/12/07 02:12:44;;;;;;;30.83;13.53;;;1.30;99.90;;;;;;5055736;28;20199;-70
2021/12/07 02:15:13;;;;;;;28.17;12.37;;;1.40;99.90;;;;;;5056389;28;20203;-70
2021/12/07 02:17:41;;;;;;;26.07;12.90;;;1.50;99.90;;;;;;5075220;28;20253;-71
2021/12/07 02:20:12;;;;;;;25.73;12.23;;;1.40;99.90;;;;;;5077747;28;20209;-71
2021/12/07 02:22:40;;;;;;;25.63;11.10;;;1.40;99.90;;;;;;5074346;28;20194;-71
2021/12/07 02:25:10;;;;;;;24.33;11.37;;;1.50;99.90;;;;;;5074648;28;20209;-71
2021/12/07 02:27:37;;;;;;;24.13;10.87;;;1.50;99.90;;;;;;5075375;28;20199;-71
2021/12/07 02:30:08;;;;;;;26.40;12.47;;;1.50;99.90;;;;;;5071317;28;20206;-71
2021/12/07 02:32:35;;;;;;;26.93;12.00;;;1.50;99.90;;;;;;5073742;28;20220;-71
2021/12/07 02:35:02;;;;;;;24.20;12.40;;;1.50;99.90;;;;;;5074803;28;20198;-71
2021/12/07 02:37:30;;;;;;;26.20;11.93;;;1.60;99.90;;;;;;5084544;28;20216;-71
2021/12/07 02:40:00;;;;;;;23.03;11.87;;;1.60;99.90;;;;;;5074632;28;20209;-71
2021/12/07 02:42:27;;;;;;;21.83;10.30;;;1.70;99.90;;;;;;5075322;28;20204;-71
2021/12/07 02:44:55;;;;;;;20.47;9.33;;;1.80;99.90;;;;;;5082221;28;20202;-71
2021/12/07 02:47:22;;;;;;;20.33;9.37;;;2.10;99.90;;;;;;5073539;28;20587;-71
2021/12/07 02:49:50;;;;;;;21.67;9.90;;;2.30;99.90;;;;;;5074467;28;20206;-71
2021/12/07 02:52:17;;;;;;;19.90;10.67;;;2.40;99.90;;;;;;5073206;28;20198;-70
2021/12/07 02:54:46;;;;;;;21.73;9.67;;;2.50;99.90;;;;;;5076009;28;20568;-71
2021/12/07 02:57:16;;;;;;;19.90;9.87;;;2.50;99.90;;;;;;5073886;28;20202;-71
2021/12/07 02:59:46;;;;;;;18.43;9.40;;;2.60;99.90;;;;;;5073605;28;20632;-71
2021/12/07 03:02:15;;;;;;;20.10;9.87;;;2.60;99.90;;;;;;5073516;28;20202;-71
2021/12/07 03:04:50;;;;;;;19.20;9.77;;;2.70;99.90;;;;;;5070750;28;20199;-71
2021/12/07 03:07:25;;;;;;;20.53;9.87;;;2.90;99.90;;;;;;5068764;28;20209;-70
2021/12/07 03:25:47;;;;;;;22.13;11.23;;;3.00;99.90;;;;;;5072692;28;20204;-71
2021/12/07 03:26:28;;;;;;;23.13;11.30;;;2.90;99.90;;;;;;5073358;28;20563;-71
2021/12/07 03:28:59;;;;;;;21.93;10.60;;;3.00;99.90;;;;;;5073672;28;20208;-71
2021/12/07 03:31:27;;;;;;;20.90;9.97;;;3.00;99.90;;;;;;5076508;28;21076;-71
2021/12/07 03:33:55;;;;;;;23.60;11.80;;;3.10;99.90;;;;;;5075916;28;20205;-71
2021/12/07 03:36:23;;;;;;;22.63;10.60;;;3.10;99.90;;;;;;5087716;28;20296;-71
2021/12/07 03:38:50;;;;;;;23.07;11.53;;;3.10;99.90;;;;;;5081348;28;20573;-71
2021/12/07 03:41:18;;;;;;;22.67;11.47;;;3.00;99.90;;;;;;5071703;28;20576;-71
2021/12/07 03:43:46;;;;;;;21.17;11.40;;;3.00;99.90;;;;;;5073327;28;20202;-71
2021/12/07 03:46:15;;;;;;;19.53;10.80;;;3.00;99.90;;;;;;5073144;28;20652;-71
2021/12/07 03:48:43;;;;;;;21.77;11.30;;;3.10;99.90;;;;;;5072638;28;20198;-71
2021/12/07 03:51:10;;;;;;;22.97;11.27;;;3.10;99.90;;;;;;5072867;28;20289;-71
2021/12/07 03:53:37;;;;;;;21.70;11.43;;;3.00;99.90;;;;;;5071951;28;20198;-71
2021/12/07 03:56:05;;;;;;;22.40;11.77;;;3.10;99.90;;;;;;5073340;28;20191;-71
2021/12/07 03:58:32;;;;;;;20.37;10.87;;;3.00;99.90;;;;;;5075165;28;20214;-71
2021/12/07 04:00:59;;;;;;;21.33;11.20;;;3.00;99.90;;;;;;5072486;28;20256;-71
2021/12/07 04:03:33;;;;;;;20.83;11.33;;;3.00;99.90;;;;;;5072089;28;20194;-71
2021/12/07 04:06:05;;;;;;;23.03;11.40;;;3.00;99.90;;;;;;5072775;28;20259;-72
2021/12/07 04:08:33;;;;;;;19.33;10.33;;;3.10;99.90;;;;;;5072113;28;20606;-72
2021/12/07 04:11:00;;;;;;;22.80;11.57;;;3.20;99.90;;;;;;5052411;28;20203;-72
2021/12/07 04:13:28;;;;;;;24.50;12.13;;;3.00;99.90;;;;;;5062900;28;20202;-72
2021/12/07 04:15:57;;;;;;;20.53;10.20;;;3.00;99.90;;;;;;5071625;28;20202;-71
2021/12/07 04:18:25;;;;;;;20.47;10.53;;;3.00;99.90;;;;;;5070340;28;20222;-71
2021/12/07 04:20:53;;;;;;;20.47;10.20;;;3.00;99.90;;;;;;5086132;28;20208;-71
2021/12/07 04:23:20;;;;;;;19.70;10.90;;;3.00;99.90;;;;;;5084969;28;20198;-71
2021/12/07 04:25:47;;;;;;;19.83;10.20;;;3.00;99.90;;;;;;5072182;28;20558;-71
2021/12/07 04:28:15;;;;;;;18.97;10.27;;;3.00;99.90;;;;;;5066810;28;20198;-71
2021/12/07 04:30:44;;;;;;;19.23;10.10;;;3.00;99.90;;;;;;5051982;28;20217;-71
2021/12/07 04:33:13;;;;;;;19.77;11.53;;;3.00;99.90;;;;;;5066480;28;20551;-71
2021/12/07 04:35:42;;;;;;;18.30;10.43;;;3.00;99.90;;;;;;5053861;28;20201;-71
2021/12/07 04:38:11;;;;;;;20.93;10.93;;;3.00;99.90;;;;;;5072465;28;20222;-71
2021/12/07 04:40:38;;;;;;;21.10;11.10;;;2.90;99.90;;;;;;5071381;28;20198;-71
2021/12/07 04:43:05;;;;;;;19.00;9.50;;;2.90;99.90;;;;;;5071895;28;20212;-71
2021/12/07 04:45:48;;;;;;;19.70;9.70;;;2.90;99.90;;;;;;5072489;28;20303;-71
2021/12/07 04:59:19;;;;;;;19.50;10.90;;;2.90;99.90;;;;;;5072525;28;20240;-71
2021/12/07 05:01:47;;;;;;;21.80;11.77;;;2.90;99.90;;;;;;5071636;28;20652;-71
2021/12/07 05:04:19;;;;;;;19.63;10.23;;;2.80;99.90;;;;;;5072259;28;20225;-71
2021/12/07 05:06:49;;;;;;;21.93;11.17;;;2.90;99.90;;;;;;5072248;28;20252;-71
2021/12/07 05:14:46;;;;;;;21.27;11.10;;;2.80;99.90;;;;;;5071594;28;20223;-71
2021/12/07 05:17:23;;;;;;;20.07;10.07;;;2.80;99.90;;;;;;5071324;28;20561;-71
2021/12/07 05:25:50;;;;;;;21.50;11.43;;;2.80;99.90;;;;;;5072000;28;20232;-71
2021/12/07 05:39:22;;;;;;;18.33;10.03;;;2.80;99.90;;;;;;5074935;28;20248;-71
2021/12/07 05:41:50;;;;;;;20.20;10.43;;;2.80;99.90;;;;;;5075150;28;20217;-71
2021/12/07 05:44:17;;;;;;;21.70;11.03;;;2.90;99.90;;;;;;5075645;28;20202;-71
2021/12/07 05:46:44;;;;;;;19.27;10.60;;;2.90;99.90;;;;;;5075379;28;20712;-71
2021/12/07 05:49:10;;;;;;;20.30;11.20;;;2.90;99.90;;;;;;5075842;28;20194;-71
2021/12/07 05:51:37;;;;;;;20.40;11.03;;;2.90;99.90;;;;;;5075046;28;20213;-71
2021/12/07 05:54:04;;;;;;;20.27;9.87;;;2.90;99.90;;;;;;5075577;28;20206;-71
2021/12/07 05:56:31;;;;;;;20.67;11.50;;;2.90;99.90;;;;;;5075009;28;20209;-71
2021/12/07 05:58:59;;;;;;;20.53;10.50;;;2.90;99.90;;;;;;5075744;28;20228;-71
2021/12/07 06:01:27;;;;;;;21.30;10.70;;;2.90;99.90;;;;;;5075620;28;20225;-71
2021/12/07 06:03:54;;;;;;;21.00;11.13;;;2.90;99.90;;;;;;5075521;28;20209;-71
2021/12/07 06:06:21;;;;;;;21.27;11.47;;;3.00;99.90;;;;;;5075712;28;20206;-71
2021/12/07 06:08:48;;;;;;;18.27;9.73;;;2.90;99.90;;;;;;5075410;28;20652;-71
2021/12/07 06:11:14;;;;;;;21.03;10.53;;;2.90;99.90;;;;;;5074678;28;20209;-71
2021/12/07 06:13:41;;;;;;;20.60;11.10;;;2.90;99.90;;;;;;5075424;28;20289;-71
2021/12/07 06:16:09;;;;;;;20.83;10.27;;;3.00;99.90;;;;;;5074639;28;20217;-71
2021/12/07 06:18:37;;;;;;;20.50;10.03;;;2.90;99.90;;;;;;5075165;28;20710;-71
2021/12/07 06:21:04;;;;;;;21.10;10.53;;;2.90;99.90;;;;;;5074475;28;20671;-71
2021/12/07 06:23:31;;;;;;;19.67;10.03;;;3.00;99.90;;;;;;5074902;28;20228;-72
2021/12/07 06:25:59;;;;;;;20.20;10.87;;;2.90;99.90;;;;;;5073531;28;20209;-71
2021/12/07 06:28:26;;;;;;;19.03;10.47;;;2.90;99.90;;;;;;5075225;28;20664;-71
2021/12/07 06:30:53;;;;;;;22.47;11.60;;;2.90;99.90;;;;;;5075088;28;20213;-71
2021/12/07 06:33:24;;;;;;;18.80;10.40;;;2.90;99.90;;;;;;5074357;28;20206;-71
2021/12/07 06:35:56;;;;;;;19.00;10.23;;;2.90;99.90;;;;;;5074877;28;20208;-71
2021/12/07 06:38:23;;;;;;;20.17;10.30;;;2.80;99.90;;;;;;5074691;28;20612;-70
2021/12/07 06:40:50;;;;;;;20.20;11.07;;;2.80;99.90;;;;;;5074146;28;20232;-70
2021/12/07 06:43:17;;;;;;;19.20;11.73;;;2.80;99.90;;;;;;5074312;28;20212;-70
2021/12/07 06:45:44;;;;;;;21.30;12.77;;;2.90;99.90;;;;;;5074852;28;20212;-70
2021/12/07 06:48:11;;;;;;;23.87;12.33;;;2.90;99.90;;;;;;5074405;28;20663;-70
2021/12/07 06:50:40;;;;;;;20.87;11.17;;;2.90;99.90;;;;;;5074077;28;20656;-70
2021/12/07 06:53:07;;;;;;;19.97;11.07;;;2.90;99.90;;;;;;5073630;28;20578;-70
2021/12/07 06:55:34;;;;;;;21.87;12.20;;;2.90;99.90;;;;;;5074794;28;20198;-70
2021/12/07 06:58:01;;;;;;;21.00;11.00;;;2.90;99.90;;;;;;5074160;28;20226;-70
2021/12/07 07:00:28;;;;;;;20.13;11.00;;;2.90;99.90;;;;;;5074485;28;20782;-70
2021/12/07 07:02:55;;;;;;;21.50;11.37;;;2.90;99.90;;;;;;5079533;28;20572;-70
2021/12/07 07:05:22;;;;;;;19.97;10.97;;;2.80;99.90;;;;;;5077621;28;20700;-70
2021/12/07 07:07:50;;;;;;;19.97;11.13;;;2.80;99.90;;;;;;5081293;28;20209;-70
2021/12/07 07:10:19;;;;;;;17.63;10.23;;;2.80;99.90;;;;;;5078449;28;20216;-70
2021/12/07 07:12:47;;;;;;;19.13;10.03;;;2.90;99.90;;;;;;5076331;28;20675;-70
2021/12/07 07:15:16;;;;;;;19.67;10.77;;;2.80;99.90;;;;;;5076513;28;20210;-71
2021/12/07 07:17:43;;;;;;;19.67;10.87;;;2.80;99.90;;;;;;5074086;28;20671;-70
2021/12/07 07:20:15;;;;;;;19.77;11.53;;;2.90;99.90;;;;;;5082318;28;20261;-70
2021/12/07 07:22:42;;;;;;;23.00;11.40;;;2.90;99.90;;;;;;5079782;28;20209;-70
2021/12/07 07:25:11;;;;;;;19.13;11.13;;;2.90;99.90;;;;;;5079420;28;20206;-70
2021/12/07 07:27:38;;;;;;;19.23;11.70;;;2.90;99.90;;;;;;5076891;28;20569;-70
2021/12/07 07:30:07;;;;;;;19.87;11.30;;;2.80;99.90;;;;;;5083665;28;20289;-70
2021/12/07 07:32:34;;;;;;;20.67;10.63;;;2.80;99.90;;;;;;5075781;28;20681;-70
2021/12/07 07:35:01;;;;;;;19.33;10.63;;;2.80;99.90;;;;;;5082489;28;20292;-70
2021/12/07 07:37:28;;;;;;;21.93;11.53;;;2.70;99.90;;;;;;5076473;28;20495;-70
2021/12/07 07:39:55;;;;;;;21.63;11.50;;;2.70;99.90;;;;;;5078807;28;20224;-70
2021/12/07 07:42:23;;;;;;;19.47;11.37;;;2.70;99.90;;;;;;5078918;28;20205;-70
2021/12/07 07:44:50;;;;;;;19.47;10.37;;;2.60;99.90;;;;;;5076552;28;20660;-70
2021/12/07 07:47:17;;;;;;;19.67;10.83;;;2.60;99.90;;;;;;5076312;28;20297;-70
2021/12/07 07:49:44;;;;;;;21.87;11.93;;;2.70;99.90;;;;;;5075427;28;20204;-70
2021/12/07 07:52:11;;;;;;;18.07;10.20;;;2.70;99.90;;;;;;5075207;28;20205;-70
2021/12/07 07:54:38;;;;;;;20.47;10.60;;;2.60;99.90;;;;;;5074795;28;20206;-70
2021/12/07 07:57:05;;;;;;;18.50;10.83;;;2.60;99.90;;;;;;5077495;28;20202;-70
2021/12/07 07:59:33;;;;;;;20.53;12.30;;;2.60;99.90;;;;;;5076488;28;20225;-70
2021/12/07 08:02:00;;;;;;;17.90;10.60;;;2.70;99.90;;;;;;5077401;28;20205;-70
2021/12/07 08:04:27;;;;;;;19.33;10.40;;;2.80;99.90;;;;;;5075013;28;20206;-70
2021/12/07 08:06:54;;;;;;;20.27;10.47;;;2.80;99.90;;;;;;5073180;28;20221;-70
2021/12/07 08:09:20;;;;;;;17.73;10.07;;;2.90;99.90;;;;;;5081049;28;20202;-70
2021/12/07 08:11:47;;;;;;;18.67;10.40;;;2.90;99.90;;;;;;5077546;28;20207;-71
2021/12/07 08:14:15;;;;;;;19.10;10.47;;;2.90;99.90;;;;;;5078515;28;20210;-71
2021/12/07 08:16:44;;;;;;;18.83;10.53;;;2.90;99.90;;;;;;5074118;28;20237;-71
2021/12/07 08:19:11;;;;;;;18.57;9.67;;;3.00;99.90;;;;;;5081212;28;20583;-70
2021/12/07 08:21:38;;;;;;;20.60;11.00;;;2.90;99.90;;;;;;5074140;28;20679;-70
2021/12/07 08:24:06;;;;;;;19.70;10.27;;;3.00;99.90;;;;;;5075549;28;20228;-70
2021/12/07 08:26:33;;;;;;;15.87;9.70;;;3.00;99.90;;;;;;5078870;28;20373;-70
2021/12/07 08:29:00;;;;;;;18.27;10.20;;;3.00;99.90;;;;;;5076684;28;20208;-70
2021/12/07 08:31:28;;;;;;;21.17;10.23;;;3.00;99.90;;;;;;5074105;28;20213;-71
2021/12/07 08:33:57;;;;;;;19.57;11.07;;;3.10;99.90;;;;;;5081148;28;20206;-71
2021/12/07 08:36:23;;;;;;;18.20;10.10;;;3.00;99.90;;;;;;5079668;28;20222;-70
2021/12/07 08:38:50;;;;;;;18.37;10.00;;;3.00;99.90;;;;;;5073656;28;20199;-70
2021/12/07 08:41:18;;;;;;;19.23;10.50;;;3.00;99.90;;;;;;5075843;28;20287;-70
2021/12/07 08:43:45;;;;;;;17.20;10.00;;;3.00;99.90;;;;;;5078359;28;20201;-70
2021/12/07 08:46:14;;;;;;;20.20;10.57;;;3.00;99.90;;;;;;5081120;28;20212;-70
2021/12/07 08:48:42;;;;;;;16.83;9.73;;;3.00;99.90;;;;;;5072491;28;20564;-70
2021/12/07 08:51:13;;;;;;;18.20;10.80;;;3.00;99.90;;;;;;5068860;28;20198;-70
2021/12/07 08:53:46;;;;;;;18.03;9.90;;;3.10;99.90;;;;;;5079245;28;20198;-70
2021/12/07 09:01:42;;;;;;;17.63;9.73;;;3.40;99.90;;;;;;5073372;28;20221;-71
2021/12/07 09:04:10;;;;;;;17.67;9.57;;;3.40;99.90;;;;;;5073835;28;20201;-70
2021/12/07 09:06:38;;;;;;;15.83;9.17;;;3.30;99.90;;;;;;5081715;28;20233;-70
2021/12/07 09:09:07;;;;;;;17.17;10.33;;;3.30;99.90;;;;;;5073751;28;20271;-70
2021/12/07 09:11:34;;;;;;;17.60;9.90;;;3.50;99.90;;;;;;5072601;28;20202;-70
2021/12/07 09:14:00;;;;;;;18.17;10.10;;;3.50;99.90;;;;;;5079412;28;20571;-70
2021/12/07 09:16:27;;;;;;;15.93;9.57;;;3.50;99.90;;;;;;5076252;28;20214;-70
2021/12/07 09:18:54;;;;;;;18.13;10.47;;;3.50;99.90;;;;;;5075015;28;20202;-70
2021/12/07 09:21:22;;;;;;;17.27;9.70;;;3.50;99.90;;;;;;5079068;28;20237;-71
2021/12/07 09:23:51;;;;;;;20.13;10.63;;;3.50;99.90;;;;;;5074286;28;20209;-71
2021/12/07 09:26:18;;;;;;;18.60;10.40;;;3.60;99.90;;;;;;5073892;28;20214;-66
2021/12/07 09:28:45;;;;;;;17.03;10.00;;;3.60;99.90;;;;;;5074397;28;20206;-66
2021/12/07 09:31:13;;;;;;;19.50;11.50;;;3.60;99.90;;;;;;5075475;28;20723;-66
2021/12/07 09:33:42;;;;;;;17.33;10.13;;;3.60;99.90;;;;;;5073804;28;20201;-66
2021/12/07 09:36:10;;;;;;;18.03;10.37;;;3.70;99.90;;;;;;5073240;28;20573;-66
2021/12/07 09:38:38;;;;;;;16.77;9.77;;;3.70;99.90;;;;;;5080632;28;20628;-66
2021/12/07 09:41:08;;;;;;;18.43;10.27;;;3.80;99.90;;;;;;5072745;28;20222;-66
2021/12/07 09:43:36;;;;;;;17.63;10.80;;;3.80;99.90;;;;;;5071892;28;20213;-66
2021/12/07 09:46:03;;;;;;;16.73;9.90;;;3.80;99.90;;;;;;5075346;28;20233;-66
2021/12/07 09:48:30;;;;;;;17.67;9.60;;;3.90;99.90;;;;;;5075066;28;20213;-66
2021/12/07 09:50:57;;;;;;;18.70;10.70;;;3.90;99.90;;;;;;5073559;28;20205;-66
2021/12/07 09:53:27;;;;;;;16.87;10.83;;;3.90;99.90;;;;;;5074812;28;20583;-66
2021/12/07 09:55:54;;;;;;;16.17;9.47;;;4.00;99.90;;;;;;5073693;28;20194;-66
2021/12/07 09:58:23;;;;;;;18.50;10.50;;;4.10;99.90;;;;;;5078393;28;20685;-66
2021/12/07 10:00:51;;;;;;;18.17;10.73;;;4.00;99.90;;;;;;5076513;28;20230;-66
2021/12/07 10:03:20;;;;;;;18.73;11.00;;;4.10;99.90;;;;;;5075783;28;20198;-66
2021/12/07 10:05:47;;;;;;;19.50;10.93;;;4.20;99.90;;;;;;5073686;28;20205;-66
2021/12/07 10:08:14;;;;;;;17.80;10.93;;;4.20;99.90;;;;;;5074130;28;20201;-66
2021/12/07 10:10:43;;;;;;;18.47;10.60;;;4.20;99.90;;;;;;5081720;28;20191;-66
2021/12/07 10:13:11;;;;;;;17.20;10.30;;;4.40;99.90;;;;;;5071798;28;20217;-67
2021/12/07 10:15:41;;;;;;;19.33;10.70;;;4.40;99.90;;;;;;5073151;28;20202;-66
2021/12/07 10:18:11;;;;;;;17.93;9.63;;;4.40;99.90;;;;;;5078126;28;20257;-66
2021/12/07 10:20:43;;;;;;;16.03;8.77;;;4.30;99.90;;;;;;5074146;28;20253;-66
2021/12/07 10:23:31;;;;;;;16.93;9.83;;;4.20;99.90;;;;;;5072692;28;20736;-65
2021/12/07 10:26:02;;;;;;;18.07;10.43;;;4.20;99.90;;;;;;5076536;28;20628;-66
2021/12/07 10:28:32;;;;;;;18.60;10.73;;;4.30;99.90;;;;;;5079646;28;20210;-66
2021/12/07 10:31:13;;;;;;;17.40;10.37;;;4.40;99.90;;;;;;5076179;28;20198;-66
2021/12/07 10:33:43;;;;;;;18.60;11.07;;;4.70;99.90;;;;;;5078107;28;20687;-66
2021/12/07 10:36:12;;;;;;;17.93;10.73;;;4.60;99.90;;;;;;5078369;28;20569;-66
2021/12/07 10:38:40;;;;;;;18.00;10.93;;;4.60;99.90;;;;;;5078745;28;20212;-66
2021/12/07 10:41:10;;;;;;;17.13;9.97;;;4.60;99.90;;;;;;5080968;28;20715;-66
2021/12/07 10:43:46;;;;;;;15.00;9.00;;;4.60;99.90;;;;;;5081632;28;20206;-66
2021/12/07 10:46:56;;;;;;;13.87;8.73;;;4.60;99.90;;;;;;5074415;28;20209;-66
2021/12/07 10:49:33;;;;;;;16.00;9.50;;;4.70;99.90;;;;;;5070667;28;20564;-66
2021/12/07 10:52:13;;;;;;;15.13;8.77;;;4.80;99.90;;;;;;5083595;28;20198;-66
2021/12/07 10:54:47;;;;;;;13.27;8.80;;;4.90;99.90;;;;;;5075565;28;20197;-66
2021/12/07 10:57:17;;;;;;;12.10;7.83;;;4.90;99.90;;;;;;5078162;28;20664;-66
2021/12/07 11:00:15;;;;;;;12.73;7.93;;;4.80;99.90;;;;;;5080341;28;20675;-66
2021/12/07 11:02:46;;;;;;;11.77;7.43;;;4.60;99.90;;;;;;5076834;28;20228;-66
2021/12/07 11:05:19;;;;;;;13.37;7.83;;;4.50;99.90;;;;;;5080466;28;20212;-65
2021/12/07 11:07:47;;;;;;;13.63;8.03;;;4.50;99.90;;;;;;5080708;28;20297;-66
2021/12/07 11:10:18;;;;;;;14.00;8.30;;;4.60;99.90;;;;;;5075915;28;20256;-66
2021/12/07 11:12:53;;;;;;;14.03;8.70;;;4.50;99.90;;;;;;5078506;28;20202;-66
2021/12/07 11:15:25;;;;;;;12.23;7.90;;;4.70;99.90;;;;;;5084111;28;20628;-66
2021/12/07 11:17:56;;;;;;;14.30;8.50;;;4.60;99.90;;;;;;5076124;28;20214;-65
2021/12/07 11:20:23;;;;;;;11.63;7.67;;;4.50;99.90;;;;;;5075134;28;20222;-66
2021/12/07 11:22:53;;;;;;;12.17;7.57;;;4.50;99.90;;;;;;5076600;28;20204;-66
2021/12/07 11:31:19;;;;;;;14.20;8.47;;;4.70;99.90;;;;;;5074900;28;20679;-66
2021/12/07 11:33:49;;;;;;;13.27;7.93;;;4.90;99.90;;;;;;5075314;28;20205;-66
2021/12/07 11:36:26;;;;;;;14.53;8.27;;;5.00;99.90;;;;;;5080152;28;20214;-66
2021/12/07 11:38:53;;;;;;;14.80;8.03;;;4.90;99.90;;;;;;5083007;28;20441;-66
2021/12/07 11:41:24;;;;;;;15.47;8.40;;;4.90;99.90;;;;;;5074581;28;20222;-66
2021/12/07 11:43:57;;;;;;;12.93;8.13;;;4.90;99.90;;;;;;5075376;28;20202;-66
2021/12/07 11:46:25;;;;;;;16.07;8.70;;;4.90;99.90;;;;;;5078655;28;20202;-66
2021/12/07 11:49:07;;;;;;;16.20;8.87;;;4.70;99.90;;;;;;5075831;28;20198;-66
2021/12/07 11:51:34;;;;;;;16.07;9.00;;;4.70;99.90;;;;;;5078535;28;20204;-66
2021/12/07 11:54:01;;;;;;;15.97;8.83;;;4.70;99.90;;;;;;5075476;28;20206;-66
2021/12/07 11:56:28;;;;;;;16.20;8.93;;;4.60;99.90;;;;;;5075796;28;20543;-66
2021/12/07 11:58:55;;;;;;;17.80;8.93;;;4.70;99.90;;;;;;5074932;28;20561;-66
2021/12/07 12:01:22;;;;;;;16.13;8.90;;;4.80;99.90;;;;;;5078708;28;20709;-66
2021/12/07 12:03:49;;;;;;;15.53;8.93;;;4.80;99.90;;;;;;5076554;28;20199;-66
2021/12/07 12:06:17;;;;;;;15.30;8.47;;;4.80;99.90;;;;;;5073930;28;20198;-66
2021/12/07 12:08:45;;;;;;;17.57;8.33;;;4.80;99.90;;;;;;5077492;28;20290;-66
2021/12/07 12:11:17;;;;;;;16.43;8.67;;;4.90;99.90;;;;;;5081788;28;20649;-66
2021/12/07 12:13:54;;;;;;;15.57;9.10;;;4.80;99.90;;;;;;5072506;28;20201;-66
2021/12/07 12:16:25;;;;;;;18.07;8.73;;;5.00;99.90;;;;;;5076730;28;20861;-66
2021/12/07 12:19:00;;;;;;;15.43;8.57;;;4.90;99.90;;;;;;5079695;28;20648;-66
2021/12/07 12:21:34;;;;;;;14.77;8.83;;;4.80;99.90;;;;;;5070654;28;20214;-66
2021/12/07 12:24:09;;;;;;;17.77;8.83;;;4.70;99.90;;;;;;5075146;28;20666;-66
2021/12/07 12:26:37;;;;;;;17.90;8.83;;;4.80;99.90;;;;;;5075891;28;20197;-66
2021/12/07 12:29:16;;;;;;;17.53;9.47;;;4.70;99.90;;;;;;5073484;28;20202;-66
2021/12/07 12:31:46;;;;;;;16.70;8.33;;;4.70;99.90;;;;;;5072279;28;20206;-66
2021/12/07 12:34:22;;;;;;;17.93;8.67;;;4.70;99.90;;;;;;5076794;28;20217;-66
2021/12/07 12:37:03;;;;;;;16.47;8.40;;;4.70;99.90;;;;;;5074139;28;20206;-66
2021/12/07 12:39:49;;;;;;;17.47;9.53;;;4.70;99.90;;;;;;5075721;28;20206;-66
2021/12/07 12:42:36;;;;;;;16.60;9.27;;;4.70;99.90;;;;;;5079681;28;20584;-66
2021/12/07 12:45:12;;;;;;;17.67;9.37;;;4.70;99.90;;;;;;5075209;28;20259;-66
2021/12/07 12:47:41;;;;;;;19.07;9.30;;;4.70;99.90;;;;;;5073025;28;20216;-66
2021/12/07 12:50:15;;;;;;;17.50;9.40;;;4.70;99.90;;;;;;5079250;28;20656;-66
2021/12/07 12:52:47;;;;;;;18.70;10.13;;;4.70;99.90;;;;;;5077372;28;20293;-66
2021/12/07 12:55:34;;;;;;;16.83;8.60;;;4.60;99.90;;;;;;5074872;28;20206;-66
2021/12/07 12:58:03;;;;;;;19.37;10.17;;;4.60;99.90;;;;;;5075398;28;20210;-70
2021/12/07 13:01:15;;;;;;;20.53;11.00;;;4.60;99.90;;;;;;5075385;28;20202;-71
2021/12/07 13:03:59;;;;;;;19.37;9.63;;;4.60;99.90;;;;;;5071556;28;20212;-71
2021/12/07 13:06:47;;;;;;;20.20;10.30;;;4.60;99.90;;;;;;5077463;28;20289;-71
2021/12/07 13:09:30;;;;;;;17.40;9.23;;;4.60;99.90;;;;;;5078431;28;20240;-72
2021/12/07 13:11:58;;;;;;;20.50;10.30;;;4.60;99.90;;;;;;5069842;28;20247;-72
2021/12/07 13:14:56;;;;;;;19.90;10.73;;;4.60;99.90;;;;;;5082693;28;20213;-72
2021/12/07 13:17:27;;;;;;;20.30;10.57;;;4.60;99.90;;;;;;5059760;28;20227;-72
2021/12/07 13:20:25;;;;;;;20.07;10.13;;;4.60;99.90;;;;;;5070838;28;20213;-70
2021/12/07 13:22:56;;;;;;;22.50;10.83;;;4.70;99.90;;;;;;5085951;28;20194;-71
2021/12/07 13:25:26;;;;;;;21.17;11.67;;;4.60;99.90;;;;;;5073725;28;20573;-71
2021/12/07 13:28:16;;;;;;;20.03;10.00;;;4.60;99.90;;;;;;5073789;28;20206;-71
2021/12/07 13:31:05;;;;;;;20.33;10.33;;;4.60;99.90;;;;;;5075353;28;20555;-71
2021/12/07 13:33:38;;;;;;;22.30;12.07;;;4.50;99.90;;;;;;5071707;28;20202;-71
2021/12/07 13:36:35;;;;;;;20.50;10.83;;;4.60;99.90;;;;;;5073747;28;20230;-72
2021/12/07 13:39:45;;;;;;;23.73;11.83;;;4.60;99.90;;;;;;5066505;28;20202;-72
2021/12/07 13:42:23;;;;;;;25.33;13.57;;;4.60;99.90;;;;;;5073829;28;20217;-72
2021/12/07 13:44:59;;;;;;;26.67;13.27;;;4.60;99.90;;;;;;5075170;28;20656;-71
2021/12/07 13:47:28;;;;;;;22.00;11.53;;;4.60;99.90;;;;;;5079712;28;20198;-71
2021/12/07 13:49:57;;;;;;;21.00;10.60;;;4.60;99.90;;;;;;5071665;28;20209;-72
2021/12/07 13:52:27;;;;;;;23.73;12.13;;;4.60;99.90;;;;;;5073856;28;20652;-72
2021/12/07 13:54:56;;;;;;;28.77;12.27;;;4.60;99.90;;;;;;5084867;28;20559;-71
2021/12/07 13:57:26;;;;;;;23.13;12.37;;;4.60;99.90;;;;;;5073121;28;20570;-72
2021/12/07 14:00:02;;;;;;;26.20;13.50;;;4.60;99.90;;;;;;5075630;28;20225;-72
2021/12/07 14:02:29;;;;;;;21.67;12.40;;;4.60;99.90;;;;;;5081016;28;20229;-71
2021/12/07 14:05:06;;;;;;;23.37;12.20;;;4.60;99.90;;;;;;5079137;28;20664;-72
2021/12/07 14:07:33;;;;;;;25.97;13.10;;;4.60;99.90;;;;;;5077698;28;20201;-72
2021/12/07 14:10:14;;;;;;;23.13;12.33;;;4.60;99.90;;;;;;5082877;28;20412;-70
2021/12/07 14:12:43;;;;;;;23.20;11.47;;;4.60;99.90;;;;;;5078573;28;20208;-70
2021/12/07 14:15:16;;;;;;;27.80;13.63;;;4.60;99.90;;;;;;5079076;28;20198;-72
2021/12/07 14:17:45;;;;;;;31.57;13.37;;;4.60;99.90;;;;;;5084646;28;20210;-72
2021/12/07 14:20:13;;;;;;;27.43;14.10;;;4.60;99.90;;;;;;5080870;28;20288;-71
2021/12/07 14:22:46;;;;;;;24.83;12.90;;;4.60;99.90;;;;;;5077740;28;20240;-70
2021/12/07 14:25:18;;;;;;;26.03;12.80;;;4.50;99.90;;;;;;5081967;28;20207;-72
2021/12/07 14:27:46;;;;;;;22.57;13.40;;;4.60;99.90;;;;;;5084732;28;20198;-72